DPMWA EDRY-EDDS

Flight info

Callsign DPMWA
Flight time 0h 20m
Altitude 15000
Route KRH KRH1E
Aircraft SF50/L-BDGRSWY/LB2U2

Departure

Time 2026-04-22 17:35
Airport Speyer Airfield (EDRY)

Arrival

Time 2026-04-22 17:55
Airport Stuttgart Airport (EDDS)
Time Latitude Longitude Altitude Speed Heading
2026-04-22 17:10 49.30273 8.45436 324 ft 0 kts 257°
2026-04-22 17:31 49.30270 8.45420 323 ft 6 kts 246°
2026-04-22 17:31 49.30214 8.45406 323 ft 12 kts 166°
2026-04-22 17:31 49.30123 8.45445 323 ft 16 kts 164°
2026-04-22 17:31 49.30015 8.45490 323 ft 15 kts 165°
2026-04-22 17:32 49.29918 8.45528 323 ft 13 kts 165°
2026-04-22 17:32 49.29839 8.45559 324 ft 11 kts 165°
2026-04-22 17:32 49.29773 8.45586 323 ft 9 kts 166°
2026-04-22 17:32 49.29721 8.45606 323 ft 7 kts 165°
2026-04-22 17:33 49.29695 8.45617 323 ft 5 kts 165°
2026-04-22 17:33 49.29660 8.45631 323 ft 3 kts 165°
2026-04-22 17:33 49.29653 8.45634 323 ft 3 kts 165°
2026-04-22 17:33 49.29601 8.45629 323 ft 11 kts 240°
2026-04-22 17:34 49.29608 8.45528 323 ft 11 kts 343°
2026-04-22 17:34 49.29787 8.45457 326 ft 56 kts 345°
2026-04-22 17:34 49.30352 8.45240 406 ft 105 kts 350°
2026-04-22 17:34 49.31117 8.44946 793 ft 122 kts 349°
2026-04-22 17:35 49.32004 8.44578 1316 ft 132 kts 348°
2026-04-22 17:35 49.32864 8.44164 1875 ft 131 kts 345°
2026-04-22 17:35 49.33796 8.43633 2178 ft 157 kts 344°
2026-04-22 17:35 49.34871 8.43029 2693 ft 167 kts 344°
2026-04-22 17:36 49.35961 8.42397 3339 ft 168 kts 343°
2026-04-22 17:36 49.36824 8.41170 3932 ft 182 kts 294°
2026-04-22 17:36 49.36674 8.39272 4544 ft 187 kts 234°
2026-04-22 17:36 49.35603 8.38367 5195 ft 176 kts 180°
2026-04-22 17:37 49.34408 8.38570 5742 ft 172 kts 152°
2026-04-22 17:37 49.33410 8.39553 6346 ft 170 kts 141°
2026-04-22 17:37 49.32421 8.40569 6916 ft 172 kts 142°
2026-04-22 17:37 49.31429 8.41573 7472 ft 174 kts 142°
2026-04-22 17:38 49.30409 8.42597 8037 ft 176 kts 142°
2026-04-22 17:38 49.29372 8.43637 8643 ft 180 kts 142°
2026-04-22 17:38 49.28335 8.44680 9342 ft 179 kts 140°
2026-04-22 17:38 49.27378 8.45900 9848 ft 183 kts 136°
2026-04-22 17:39 49.26279 8.46927 10418 ft 189 kts 153°
2026-04-22 17:39 49.25006 8.47530 10946 ft 193 kts 161°
2026-04-22 17:39 49.22381 8.48615 11983 ft 197 kts 159°
2026-04-22 17:40 49.21052 8.49184 12494 ft 199 kts 160°
2026-04-22 17:40 49.19708 8.49756 13005 ft 201 kts 160°
2026-04-22 17:40 49.18367 8.50330 13508 ft 203 kts 160°
2026-04-22 17:40 49.16994 8.50915 14013 ft 206 kts 160°
2026-04-22 17:41 49.15609 8.51507 14464 ft 208 kts 160°
2026-04-22 17:41 49.14208 8.52099 14910 ft 209 kts 160°
2026-04-22 17:41 49.12789 8.52705 15249 ft 218 kts 160°
2026-04-22 17:41 49.11256 8.53360 15258 ft 239 kts 161°
2026-04-22 17:42 49.09615 8.54052 15261 ft 255 kts 161°
2026-04-22 17:42 49.07868 8.54791 15261 ft 265 kts 161°
2026-04-22 17:42 49.06655 8.55306 15260 ft 270 kts 161°
2026-04-22 17:42 49.04213 8.56340 15261 ft 278 kts 161°
2026-04-22 17:43 49.02327 8.57139 15260 ft 284 kts 161°
2026-04-22 17:43 49.00408 8.57950 15193 ft 290 kts 161°
2026-04-22 17:43 48.98488 8.59109 14732 ft 300 kts 147°
2026-04-22 17:43 48.96695 8.60746 14277 ft 300 kts 146°
2026-04-22 17:44 48.94885 8.62353 13797 ft 299 kts 147°
2026-04-22 17:44 48.93114 8.63903 13286 ft 296 kts 147°
2026-04-22 17:44 48.91337 8.65475 12787 ft 294 kts 147°
2026-04-22 17:44 48.89576 8.67039 12291 ft 290 kts 147°
2026-04-22 17:45 48.87839 8.68580 11803 ft 287 kts 147°
2026-04-22 17:45 48.86115 8.70102 11328 ft 285 kts 147°
2026-04-22 17:45 48.84425 8.71596 10857 ft 284 kts 146°
2026-04-22 17:45 48.82719 8.73096 10386 ft 282 kts 146°
2026-04-22 17:46 48.81029 8.74587 9904 ft 280 kts 147°
2026-04-22 17:46 48.79353 8.76061 9409 ft 276 kts 147°
2026-04-22 17:46 48.77705 8.77507 8901 ft 272 kts 146°
2026-04-22 17:46 48.76100 8.78919 8177 ft 255 kts 147°
2026-04-22 17:47 48.74594 8.80236 7520 ft 237 kts 147°
2026-04-22 17:47 48.73118 8.81535 7384 ft 246 kts 147°
2026-04-22 17:47 48.71714 8.82763 7124 ft 225 kts 147°
2026-04-22 17:47 48.70399 8.83903 6854 ft 212 kts 146°
2026-04-22 17:48 48.69538 8.84647 6566 ft 211 kts 147°
2026-04-22 17:48 48.67851 8.86091 5845 ft 208 kts 146°
2026-04-22 17:48 48.66786 8.87489 5312 ft 201 kts 126°
2026-04-22 17:48 48.65964 8.89097 5235 ft 191 kts 123°
2026-04-22 17:49 48.65136 8.90711 5238 ft 192 kts 123°
2026-04-22 17:49 48.64312 8.92308 5145 ft 193 kts 123°
2026-04-22 17:49 48.63572 8.93972 4902 ft 188 kts 106°
2026-04-22 17:49 48.63689 8.95843 4672 ft 182 kts 63°
2026-04-22 17:50 48.64263 8.97503 4441 ft 181 kts 71°
2026-04-22 17:50 48.64632 8.99314 4196 ft 175 kts 73°
2026-04-22 17:50 48.64968 9.00995 3964 ft 159 kts 74°
2026-04-22 17:50 48.65254 9.02556 3756 ft 149 kts 73°
2026-04-22 17:51 48.65544 9.04032 3554 ft 144 kts 73°
2026-04-22 17:51 48.65810 9.05488 3364 ft 144 kts 73°
2026-04-22 17:51 48.66097 9.06940 3172 ft 144 kts 75°
2026-04-22 17:51 48.66363 9.08402 2977 ft 144 kts 74°
2026-04-22 17:52 48.66649 9.09845 2773 ft 140 kts 74°
2026-04-22 17:52 48.66818 9.10773 2635 ft 136 kts 73°
2026-04-22 17:52 48.67152 9.12578 2381 ft 133 kts 73°
2026-04-22 17:52 48.67329 9.13482 2248 ft 132 kts 71°
2026-04-22 17:53 48.67641 9.15115 2026 ft 107 kts 72°
2026-04-22 17:53 48.67815 9.16046 1890 ft 78 kts 73°
2026-04-22 17:53 48.67915 9.16558 1838 ft 77 kts 73°
2026-04-22 17:53 48.68050 9.17346 1732 ft 78 kts 69°
2026-04-22 17:54 48.68213 9.18124 1600 ft 78 kts 69°
2026-04-22 17:54 48.68383 9.18985 1515 ft 82 kts 72°
2026-04-22 17:54 48.68529 9.19780 1404 ft 76 kts 70°
2026-04-22 17:54 48.68672 9.20530 1275 ft 68 kts 71°
2026-04-22 17:55 48.68774 9.21067 1256 ft 20 kts 73°
2026-04-22 17:55 48.68793 9.21162 1256 ft 14 kts 74°
2026-04-22 17:55 48.68840 9.21400 1253 ft 21 kts 71°
2026-04-22 17:55 48.68903 9.21483 1246 ft 11 kts 346°
2026-04-22 17:56 48.68962 9.21458 1248 ft 4 kts 343°
2026-04-22 17:56 48.69019 9.21433 1252 ft 12 kts 342°
2026-04-22 17:56 48.69084 9.21366 1256 ft 12 kts 273°
2026-04-22 17:56 48.69130 9.21297 1259 ft 10 kts 344°
2026-04-22 17:57 48.69157 9.21254 1264 ft 4 kts 230°
2026-04-22 17:57 48.69139 9.21253 1263 ft 5 kts 165°
2026-04-22 17:57 48.69130 9.21257 1260 ft 0 kts 165°